Time;durP1;ratioP1;P1;durP2;ratioP2;P2;SDS_P1;SDS_P2;PMS_P1;PMS_P2;Temp;Humidity;BMP_temperature;BMP_pressure;BME280_temperature;BME280_humidity;BME280_pressure;Samples;Min_cycle;Max_cycle;Signal;HPM_P1;HPM_P2
2022/09/01 00:02:07;;;;;;;2.33;2.10;;;17.90;99.90;;;;;;4960263;28;20444;-77
2022/09/01 00:04:40;;;;;;;2.63;2.40;;;17.90;99.90;;;;;;4977759;28;20537;-76
2022/09/01 00:07:05;;;;;;;2.47;2.27;;;17.80;99.90;;;;;;4977571;28;20469;-76
2022/09/01 00:09:32;;;;;;;2.50;2.30;;;17.80;99.90;;;;;;4977246;28;20432;-75
2022/09/01 00:11:58;;;;;;;3.50;2.40;;;17.70;99.90;;;;;;4977249;28;20231;-77
2022/09/01 00:14:27;;;;;;;2.60;2.40;;;17.70;99.90;;;;;;4977815;28;20424;-76
2022/09/01 00:16:53;;;;;;;3.50;2.20;;;17.60;99.90;;;;;;4977653;28;20473;-76
2022/09/01 00:19:20;;;;;;;2.60;2.40;;;17.60;99.90;;;;;;4977156;28;20479;-75
2022/09/01 00:21:46;;;;;;;2.90;2.30;;;17.50;99.90;;;;;;4975554;28;20686;-76
2022/09/01 00:24:14;;;;;;;2.73;2.53;;;17.50;99.90;;;;;;4977278;28;20430;-78
2022/09/01 00:26:40;;;;;;;3.20;2.63;;;17.40;99.90;;;;;;4977271;28;20558;-77
2022/09/01 00:29:06;;;;;;;2.30;2.10;;;17.40;99.90;;;;;;4975902;28;20523;-77
2022/09/01 00:31:33;;;;;;;2.40;2.20;;;17.40;99.90;;;;;;4976772;28;20685;-78
2022/09/01 00:33:59;;;;;;;2.30;2.10;;;17.40;99.90;;;;;;4976909;28;20753;-76
2022/09/01 00:36:25;;;;;;;2.43;2.23;;;17.40;99.90;;;;;;4977342;28;20901;-76
2022/09/01 00:38:51;;;;;;;3.20;2.27;;;17.40;99.90;;;;;;4975632;28;20437;-76
2022/09/01 00:41:20;;;;;;;2.07;1.80;;;17.40;99.90;;;;;;4976656;28;20197;-75
2022/09/01 00:43:59;;;;;;;2.30;2.10;;;17.40;99.90;;;;;;4976919;28;20758;-77
2022/09/01 00:46:31;;;;;;;2.90;2.23;;;17.40;99.90;;;;;;4977005;28;20437;-76
2022/09/01 00:49:35;;;;;;;6.87;2.20;;;17.40;99.90;;;;;;4976809;28;20482;-75
2022/09/01 00:52:14;;;;;;;3.30;2.53;;;17.30;99.90;;;;;;4976428;28;20770;-76
2022/09/01 00:54:44;;;;;;;2.23;2.00;;;17.30;99.90;;;;;;4976745;28;20483;-76
2022/09/01 00:57:11;;;;;;;2.40;2.17;;;17.30;99.90;;;;;;4976943;28;20412;-77
2022/09/01 00:59:44;;;;;;;2.70;2.50;;;17.30;99.90;;;;;;4976709;28;20444;-75
2022/09/01 01:02:10;;;;;;;4.17;2.50;;;17.40;99.90;;;;;;4976762;28;20467;-74
2022/09/01 01:04:36;;;;;;;2.73;2.53;;;17.40;99.90;;;;;;4976664;28;20471;-77
2022/09/01 01:07:02;;;;;;;3.10;2.20;;;17.40;99.90;;;;;;4976627;28;20247;-76
2022/09/01 01:09:34;;;;;;;3.50;2.30;;;17.50;99.90;;;;;;4976274;28;20189;-76
2022/09/01 01:12:02;;;;;;;3.90;2.80;;;17.50;99.90;;;;;;4976157;28;20411;-75
2022/09/01 01:14:31;;;;;;;3.17;2.20;;;17.50;99.90;;;;;;4976441;28;20791;-75
2022/09/01 01:16:59;;;;;;;3.33;2.67;;;17.60;99.90;;;;;;4976380;28;20421;-75
2022/09/01 01:25:06;;;;;;;2.80;2.53;;;17.50;99.90;;;;;;4976485;28;20544;-76
2022/09/01 01:27:33;;;;;;;6.33;2.70;;;17.30;99.90;;;;;;4975015;28;20395;-75
2022/09/01 01:30:02;;;;;;;5.73;2.60;;;17.40;99.90;;;;;;4975258;28;20410;-74
2022/09/01 01:32:28;;;;;;;2.60;2.40;;;17.30;99.90;;;;;;4975901;28;20520;-75
2022/09/01 01:34:55;;;;;;;7.53;2.80;;;17.30;99.90;;;;;;4976099;28;20472;-76
2022/09/01 01:37:24;;;;;;;3.03;2.23;;;17.20;99.90;;;;;;4976091;28;20185;-75
2022/09/01 01:39:50;;;;;;;3.43;2.43;;;17.20;99.90;;;;;;4974240;28;20439;-76
2022/09/01 01:42:16;;;;;;;3.40;2.40;;;17.10;99.90;;;;;;4974376;28;20534;-76
2022/09/01 01:44:42;;;;;;;3.07;2.03;;;17.00;99.90;;;;;;4975831;28;20445;-77
2022/09/01 01:47:11;;;;;;;3.37;2.00;;;17.00;99.90;;;;;;4976144;28;20403;-77
2022/09/01 01:49:42;;;;;;;2.53;2.33;;;16.90;99.90;;;;;;4975691;28;20188;-77
2022/09/01 01:52:09;;;;;;;3.07;2.30;;;16.90;99.90;;;;;;4975310;28;20460;-76
2022/09/01 01:54:36;;;;;;;2.17;1.97;;;16.80;99.90;;;;;;4975233;28;20474;-75
2022/09/01 01:57:03;;;;;;;3.87;2.00;;;16.80;99.90;;;;;;4975716;28;20499;-74
2022/09/01 01:59:29;;;;;;;3.33;1.80;;;16.80;99.90;;;;;;4975226;28;20459;-75
2022/09/01 02:01:55;;;;;;;2.80;2.57;;;16.70;99.90;;;;;;4975265;28;20941;-76
2022/09/01 02:04:21;;;;;;;3.20;1.77;;;16.70;99.90;;;;;;4974244;28;20481;-76
2022/09/01 02:06:48;;;;;;;2.70;2.20;;;16.70;99.90;;;;;;4975295;28;20480;-74
2022/09/01 02:09:19;;;;;;;1.93;1.57;;;16.70;99.90;;;;;;4975294;28;20428;-76
2022/09/01 02:11:44;;;;;;;3.73;2.23;;;16.70;99.90;;;;;;4974942;28;20532;-75
2022/09/01 02:14:12;;;;;;;5.70;2.63;;;16.70;99.90;;;;;;4975391;28;20440;-76
2022/09/01 02:16:38;;;;;;;3.30;2.30;;;16.70;99.90;;;;;;4975163;28;20263;-77
2022/09/01 02:19:07;;;;;;;2.47;1.80;;;16.60;99.90;;;;;;4974949;28;20411;-75
2022/09/01 02:21:33;;;;;;;3.37;2.40;;;16.50;99.90;;;;;;4974732;28;20463;-74
2022/09/01 02:24:02;;;;;;;2.63;2.43;;;16.50;99.90;;;;;;4975181;28;20940;-76
2022/09/01 02:26:31;;;;;;;4.13;2.53;;;16.50;99.90;;;;;;4974972;28;20428;-77
2022/09/01 02:29:03;;;;;;;4.37;2.60;;;16.50;99.90;;;;;;4974729;28;20463;-75
2022/09/01 02:31:40;;;;;;;2.40;2.10;;;16.50;99.90;;;;;;4974659;28;20433;-76
2022/09/01 02:34:10;;;;;;;2.57;2.10;;;16.40;99.90;;;;;;4974695;28;20416;-76
2022/09/01 02:36:43;;;;;;;2.90;2.33;;;16.40;99.90;;;;;;4973559;28;20786;-76
2022/09/01 02:39:09;;;;;;;2.80;2.50;;;16.40;99.90;;;;;;4973417;28;20415;-74
2022/09/01 02:41:35;;;;;;;3.23;2.40;;;16.40;99.90;;;;;;4974514;28;20785;-74
2022/09/01 02:44:10;;;;;;;3.23;2.60;;;16.40;99.90;;;;;;4975050;28;20412;-76
2022/09/01 02:46:43;;;;;;;3.20;2.60;;;16.40;99.90;;;;;;4974861;28;20591;-76
2022/09/01 02:49:14;;;;;;;3.07;2.23;;;16.40;99.90;;;;;;4974529;28;20409;-76
2022/09/01 02:51:42;;;;;;;2.63;2.43;;;16.40;99.90;;;;;;4972994;28;20462;-76
2022/09/01 02:54:09;;;;;;;2.97;2.13;;;16.30;99.90;;;;;;4973509;28;20746;-76
2022/09/01 02:56:34;;;;;;;4.10;2.70;;;16.30;99.90;;;;;;4974555;28;20416;-75
2022/09/01 02:59:01;;;;;;;2.83;2.10;;;16.30;99.90;;;;;;4974116;28;20435;-77
2022/09/01 03:01:30;;;;;;;2.90;2.70;;;16.30;99.90;;;;;;4972993;28;20275;-76
2022/09/01 03:04:02;;;;;;;5.37;2.67;;;16.20;99.90;;;;;;4974545;28;20457;-75
2022/09/01 03:06:32;;;;;;;4.23;2.47;;;16.20;99.90;;;;;;4972677;28;20403;-75
2022/09/01 03:08:59;;;;;;;2.30;1.90;;;16.20;99.90;;;;;;4974120;28;20422;-76
2022/09/01 03:11:27;;;;;;;2.53;1.93;;;16.20;99.90;;;;;;4974071;28;20439;-77
2022/09/01 03:13:53;;;;;;;3.03;2.37;;;16.20;99.90;;;;;;4974668;28;20495;-76
2022/09/01 03:16:21;;;;;;;3.07;2.40;;;16.20;99.90;;;;;;4974540;28;20430;-77
2022/09/01 03:18:48;;;;;;;3.27;2.63;;;16.20;99.90;;;;;;4974281;28;20185;-76
2022/09/01 03:21:16;;;;;;;4.30;2.70;;;16.20;99.90;;;;;;4973835;28;20975;-75
2022/09/01 03:23:44;;;;;;;2.20;2.00;;;16.20;99.90;;;;;;4974312;28;20515;-73
2022/09/01 03:26:10;;;;;;;4.60;2.60;;;16.20;99.90;;;;;;4974379;28;20459;-73
2022/09/01 03:28:38;;;;;;;2.80;2.50;;;16.20;99.90;;;;;;4974177;28;20418;-74
2022/09/01 03:31:05;;;;;;;2.30;2.10;;;16.10;99.90;;;;;;4973727;28;20512;-74
2022/09/01 03:33:31;;;;;;;2.87;2.67;;;16.10;99.90;;;;;;4974236;28;20406;-75
2022/09/01 03:35:57;;;;;;;2.40;2.20;;;16.00;99.90;;;;;;4974425;28;20477;-74
2022/09/01 03:38:25;;;;;;;6.50;1.93;;;16.00;99.90;;;;;;4974127;28;20428;-74
2022/09/01 03:40:57;;;;;;;3.60;2.87;;;16.00;99.90;;;;;;4973805;28;20410;-75
2022/09/01 03:43:26;;;;;;;4.70;2.10;;;16.00;99.90;;;;;;4974097;28;20398;-75
2022/09/01 03:45:54;;;;;;;2.60;2.40;;;16.00;99.90;;;;;;4973979;28;20471;-74
2022/09/01 03:48:21;;;;;;;6.30;2.17;;;16.00;99.90;;;;;;4973935;28;20410;-76
2022/09/01 03:50:48;;;;;;;3.30;2.17;;;16.00;99.90;;;;;;4973692;28;20403;-75
2022/09/01 03:53:18;;;;;;;2.83;1.97;;;16.00;99.90;;;;;;4974212;28;20416;-74
2022/09/01 03:55:46;;;;;;;2.47;2.03;;;16.00;99.90;;;;;;4974140;28;20962;-75
2022/09/01 03:58:17;;;;;;;2.70;2.33;;;16.00;99.90;;;;;;4972627;28;20501;-76
2022/09/01 04:00:46;;;;;;;5.37;2.73;;;16.00;99.90;;;;;;4973850;28;20498;-73
2022/09/01 04:03:13;;;;;;;4.10;2.80;;;15.90;99.90;;;;;;4974152;28;20406;-76
2022/09/01 04:05:43;;;;;;;2.90;2.70;;;15.90;99.90;;;;;;4973955;28;20490;-75
2022/09/01 04:08:11;;;;;;;2.73;2.47;;;15.90;99.90;;;;;;4973744;28;20444;-75
2022/09/01 04:10:49;;;;;;;3.30;2.83;;;15.80;99.90;;;;;;4972222;28;20427;-74
2022/09/01 04:13:20;;;;;;;3.63;2.77;;;15.80;99.90;;;;;;4974099;28;20413;-76
2022/09/01 04:15:47;;;;;;;4.20;2.60;;;15.80;99.90;;;;;;4974094;28;20394;-74
2022/09/01 04:18:20;;;;;;;4.03;3.30;;;15.70;99.90;;;;;;4976672;28;20394;-74
2022/09/01 04:20:48;;;;;;;4.23;3.43;;;15.70;99.90;;;;;;4977123;28;20434;-74
2022/09/01 04:23:28;;;;;;;4.83;2.90;;;15.80;99.90;;;;;;4977404;28;20867;-75
2022/09/01 04:26:11;;;;;;;4.37;2.93;;;15.70;99.90;;;;;;4977215;28;20434;-75
2022/09/01 04:28:57;;;;;;;2.70;2.50;;;15.70;99.90;;;;;;4976587;28;20428;-76
2022/09/01 04:31:23;;;;;;;3.50;2.80;;;15.60;99.90;;;;;;4976727;28;20531;-75
2022/09/01 04:33:54;;;;;;;6.03;3.10;;;15.50;99.90;;;;;;4975879;28;20395;-76
2022/09/01 04:36:30;;;;;;;5.70;3.10;;;15.50;99.90;;;;;;4977134;28;20185;-75
2022/09/01 04:38:59;;;;;;;2.30;2.10;;;15.50;99.90;;;;;;4957831;29;20525;-74
2022/09/01 04:41:30;;;;;;;7.20;3.00;;;15.40;99.90;;;;;;4957266;28;20520;-76
2022/09/01 04:43:59;;;;;;;3.23;3.00;;;15.30;99.90;;;;;;4957562;29;20399;-74
2022/09/01 04:46:27;;;;;;;3.60;2.77;;;15.30;99.90;;;;;;4956208;29;20468;-74
2022/09/01 04:48:53;;;;;;;4.87;3.27;;;15.30;99.90;;;;;;4976636;28;20498;-74
2022/09/01 04:51:19;;;;;;;5.50;3.47;;;15.20;99.90;;;;;;4976644;28;20409;-75
2022/09/01 04:53:47;;;;;;;4.10;2.87;;;15.20;99.90;;;;;;4976672;28;20466;-75
2022/09/01 04:56:18;;;;;;;3.50;2.80;;;15.10;99.90;;;;;;4976828;28;20448;-75
2022/09/01 04:58:48;;;;;;;3.20;2.70;;;15.10;99.90;;;;;;4976295;28;20777;-73
2022/09/01 05:01:19;;;;;;;3.30;2.93;;;15.10;99.90;;;;;;4975822;28;20448;-76
2022/09/01 05:03:47;;;;;;;3.00;2.80;;;15.00;99.90;;;;;;4976743;28;20487;-74
2022/09/01 05:06:17;;;;;;;3.40;2.87;;;14.80;99.90;;;;;;4976054;28;20448;-76
2022/09/01 05:08:44;;;;;;;4.60;3.40;;;14.80;99.90;;;;;;4975493;28;20444;-75
2022/09/01 05:11:11;;;;;;;4.40;3.30;;;14.80;99.90;;;;;;4976247;28;20518;-74
2022/09/01 05:13:38;;;;;;;5.30;3.23;;;14.70;99.90;;;;;;4975381;28;20416;-76
2022/09/01 05:16:11;;;;;;;3.40;2.83;;;14.70;99.90;;;;;;4974791;28;20405;-75
2022/09/01 05:18:39;;;;;;;3.70;3.30;;;14.60;99.90;;;;;;4976318;28;20486;-76
2022/09/01 05:21:15;;;;;;;3.53;3.20;;;14.70;99.90;;;;;;4974451;28;21006;-75
2022/09/01 05:23:45;;;;;;;3.30;3.00;;;14.60;99.90;;;;;;4974702;28;20986;-74
2022/09/01 05:26:33;;;;;;;3.70;3.40;;;14.60;99.90;;;;;;4975664;28;20526;-76
2022/09/01 05:29:03;;;;;;;3.80;3.40;;;14.60;99.90;;;;;;4975419;28;20837;-75
2022/09/01 05:31:33;;;;;;;3.63;3.33;;;14.50;99.90;;;;;;4975763;28;20844;-75
2022/09/01 05:34:00;;;;;;;5.50;3.83;;;14.50;99.90;;;;;;4975863;28;20399;-75
2022/09/01 05:36:30;;;;;;;3.23;3.03;;;14.60;99.90;;;;;;4975729;28;20420;-75
2022/09/01 05:38:57;;;;;;;3.73;3.40;;;14.60;99.90;;;;;;4974702;28;20451;-75
2022/09/01 05:41:23;;;;;;;3.93;3.33;;;14.60;99.90;;;;;;4974313;28;20495;-74
2022/09/01 05:43:53;;;;;;;6.60;3.10;;;14.60;99.90;;;;;;4975740;28;20751;-75
2022/09/01 05:46:25;;;;;;;3.17;2.87;;;14.60;99.90;;;;;;4975384;28;20236;-75
2022/09/01 05:48:52;;;;;;;5.20;3.50;;;14.70;99.90;;;;;;4975754;28;20404;-75
2022/09/01 05:51:25;;;;;;;7.23;3.40;;;14.70;99.90;;;;;;4975339;28;20432;-74
2022/09/01 05:53:53;;;;;;;3.73;3.30;;;14.80;99.90;;;;;;4975582;28;20467;-74
2022/09/01 05:56:22;;;;;;;3.00;2.70;;;14.70;99.90;;;;;;4975804;28;20427;-75
2022/09/01 05:58:49;;;;;;;3.83;3.03;;;14.50;99.90;;;;;;4974651;28;20411;-75
2022/09/01 06:01:25;;;;;;;5.03;2.87;;;14.70;99.90;;;;;;4975294;28;20415;-75
2022/09/01 06:03:53;;;;;;;3.40;3.10;;;14.80;99.90;;;;;;4975866;28;20816;-76
2022/09/01 06:06:23;;;;;;;3.27;2.97;;;14.80;99.90;;;;;;4973930;28;20491;-75
2022/09/01 06:08:50;;;;;;;4.53;2.80;;;15.00;99.90;;;;;;4974178;28;20436;-75
2022/09/01 06:11:17;;;;;;;3.73;2.73;;;15.00;99.90;;;;;;4974839;28;20410;-75
2022/09/01 06:13:46;;;;;;;4.37;3.23;;;15.10;99.90;;;;;;4974778;28;20420;-75
2022/09/01 06:16:18;;;;;;;2.77;2.50;;;15.20;99.90;;;;;;4974861;28;20421;-77
2022/09/01 06:18:44;;;;;;;4.50;3.70;;;15.30;99.90;;;;;;4973868;28;20402;-75
2022/09/01 06:21:15;;;;;;;3.60;2.53;;;15.50;99.90;;;;;;4974815;28;20808;-75
2022/09/01 06:23:41;;;;;;;6.53;3.60;;;15.50;99.90;;;;;;4975265;28;20415;-75
2022/09/01 06:26:16;;;;;;;3.73;2.63;;;15.50;99.90;;;;;;4973642;28;20442;-75
2022/09/01 06:28:43;;;;;;;4.23;2.40;;;15.60;99.90;;;;;;4974035;28;20551;-74
2022/09/01 06:31:10;;;;;;;2.80;2.17;;;15.70;99.90;;;;;;4974772;28;20411;-76
2022/09/01 06:33:37;;;;;;;2.60;2.20;;;15.80;99.90;;;;;;4975137;28;20487;-75
2022/09/01 06:36:04;;;;;;;3.40;2.07;;;16.00;99.90;;;;;;4975212;28;20395;-74
2022/09/01 06:38:30;;;;;;;10.20;2.37;;;16.10;99.90;;;;;;4974806;28;20419;-76
2022/09/01 06:41:04;;;;;;;4.93;2.50;;;16.20;99.90;;;;;;4974399;28;20932;-74
2022/09/01 06:43:31;;;;;;;2.90;2.00;;;16.40;99.90;;;;;;4974966;28;20419;-76
2022/09/01 06:46:01;;;;;;;4.53;2.33;;;16.50;99.90;;;;;;4974789;28;20475;-74
2022/09/01 06:48:29;;;;;;;2.53;1.60;;;16.50;99.90;;;;;;4974768;28;20433;-81
2022/09/01 06:50:58;;;;;;;3.90;2.03;;;16.60;99.90;;;;;;4974168;28;20786;-82
2022/09/01 06:53:24;;;;;;;6.40;1.90;;;16.80;99.90;;;;;;4974746;28;20463;-80
2022/09/01 06:55:50;;;;;;;4.27;1.60;;;17.00;99.90;;;;;;4974642;28;20790;-82
2022/09/01 06:58:16;;;;;;;1.93;1.80;;;17.10;99.90;;;;;;4974844;28;20188;-79
2022/09/01 07:00:42;;;;;;;2.33;2.10;;;17.20;99.90;;;;;;4973140;28;20443;-79
2022/09/01 07:03:09;;;;;;;5.00;1.90;;;17.30;99.90;;;;;;4973634;28;20196;-79
2022/09/01 07:05:40;;;;;;;3.03;1.53;;;17.50;99.90;;;;;;4974381;28;20459;-79
2022/09/01 07:08:08;;;;;;;3.10;2.20;;;17.60;99.90;;;;;;5013509;23;20494;-80
2022/09/01 07:10:43;;;;;;;7.33;1.97;;;17.70;99.90;;;;;;4993589;28;20454;-80
2022/09/01 07:13:18;;;;;;;3.87;2.07;;;17.80;99.90;;;;;;4993344;28;20411;-80
2022/09/01 07:15:48;;;;;;;8.40;2.20;;;17.80;99.90;;;;;;4992412;28;20429;-80
2022/09/01 07:18:19;;;;;;;4.77;1.80;;;18.00;99.90;;;;;;4991403;28;20393;-78
2022/09/01 07:20:47;;;;;;;2.53;1.63;;;18.10;99.90;;;;;;4993461;28;20435;-78
2022/09/01 07:23:15;;;;;;;3.20;1.80;;;18.20;99.90;;;;;;4993597;28;20427;-79
2022/09/01 07:25:43;;;;;;;3.90;2.00;;;18.30;99.90;;;;;;4993966;28;20852;-79
2022/09/01 07:28:12;;;;;;;2.20;1.80;;;18.50;99.90;;;;;;4992652;28;20419;-79
2022/09/01 07:30:47;;;;;;;2.10;1.90;;;18.60;99.90;;;;;;4993399;28;20857;-80
2022/09/01 07:33:23;;;;;;;2.37;1.80;;;18.70;99.90;;;;;;4994513;28;20394;-79
2022/09/01 07:35:54;;;;;;;4.53;1.60;;;18.80;99.90;;;;;;4993227;28;20919;-79
2022/09/01 07:38:21;;;;;;;3.30;1.80;;;18.90;99.90;;;;;;4994096;28;20482;-80
2022/09/01 07:40:47;;;;;;;2.77;2.13;;;19.00;99.90;;;;;;4993435;28;20795;-78
2022/09/01 07:43:23;;;;;;;2.30;1.70;;;19.00;99.90;;;;;;4993593;28;20917;-79
2022/09/01 07:45:51;;;;;;;1.53;1.43;;;19.10;99.90;;;;;;4993640;28;20474;-79
2022/09/01 07:48:20;;;;;;;2.93;1.87;;;19.20;99.90;;;;;;4992487;28;20423;-79
2022/09/01 07:50:51;;;;;;;2.60;1.50;;;19.30;99.90;;;;;;4991861;28;20836;-76
2022/09/01 07:53:21;;;;;;;4.10;1.47;;;19.50;99.90;;;;;;4996911;28;20804;-75
2022/09/01 07:55:49;;;;;;;1.63;1.20;;;19.60;99.90;;;;;;4997439;28;20423;-74
2022/09/01 07:58:16;;;;;;;1.63;1.50;;;19.60;99.90;;;;;;4997402;28;20419;-74
2022/09/01 08:00:43;;;;;;;3.43;1.40;;;19.70;99.90;;;;;;4996912;28;20442;-74
2022/09/01 08:03:09;;;;;;;1.70;1.60;;;19.90;99.90;;;;;;4995919;28;20411;-75
2022/09/01 08:05:35;;;;;;;7.33;1.60;;;19.90;99.90;;;;;;4996004;28;20918;-75
2022/09/01 08:08:00;;;;;;;4.33;1.70;;;20.00;99.90;;;;;;4997170;28;20672;-75
2022/09/01 08:10:26;;;;;;;1.73;1.37;;;20.10;99.90;;;;;;4996619;28;20219;-74
2022/09/01 08:12:52;;;;;;;4.93;2.10;;;20.20;99.90;;;;;;4996801;28;20702;-75
2022/09/01 08:15:18;;;;;;;4.90;1.63;;;20.30;99.90;;;;;;4996825;28;20494;-74
2022/09/01 08:17:44;;;;;;;1.87;1.63;;;20.40;99.90;;;;;;4997186;28;20188;-75
2022/09/01 08:20:10;;;;;;;3.63;1.50;;;20.60;99.90;;;;;;4994836;28;20258;-75
2022/09/01 08:22:37;;;;;;;2.50;1.47;;;20.50;99.90;;;;;;4996797;28;20489;-74
2022/09/01 08:25:05;;;;;;;3.70;1.67;;;20.50;99.90;;;;;;4995490;28;20478;-75
2022/09/01 08:27:35;;;;;;;3.10;1.73;;;20.90;99.90;;;;;;4996637;28;20419;-75
2022/09/01 08:30:04;;;;;;;4.70;2.03;;;21.30;99.90;;;;;;4996280;28;20486;-75
2022/09/01 08:32:31;;;;;;;3.80;1.80;;;21.70;99.90;;;;;;4996283;28;20461;-75
2022/09/01 08:34:56;;;;;;;3.40;1.80;;;22.10;99.90;;;;;;4996208;28;20437;-75
2022/09/01 08:37:22;;;;;;;4.10;1.63;;;22.60;99.90;;;;;;4996447;28;20891;-75
2022/09/01 08:39:48;;;;;;;3.00;1.37;;;22.80;99.90;;;;;;4996225;28;20195;-74
2022/09/01 08:42:23;;;;;;;2.67;1.50;;;23.20;99.90;;;;;;4979213;28;20199;-74
2022/09/01 08:45:08;;;;;;;1.77;1.37;;;23.10;99.90;;;;;;4996383;28;20238;-74
2022/09/01 08:47:35;;;;;;;3.27;1.87;;;23.60;99.90;;;;;;4995838;28;20418;-75
2022/09/01 08:50:01;;;;;;;2.73;1.50;;;24.00;99.90;;;;;;4995938;28;20415;-74
2022/09/01 08:52:37;;;;;;;5.07;1.80;;;24.50;99.90;;;;;;4996308;28;20461;-75
2022/09/01 08:55:40;;;;;;;2.57;1.77;;;24.70;99.90;;;;;;4996262;28;20414;-74
2022/09/01 08:58:08;;;;;;;7.93;2.17;;;24.90;99.90;;;;;;4994655;28;20426;-75
2022/09/01 09:00:42;;;;;;;2.27;1.33;;;25.30;99.90;;;;;;4995817;28;20442;-75
2022/09/01 09:03:35;;;;;;;2.83;1.33;;;25.70;99.90;;;;;;4994944;28;20470;-75
2022/09/01 09:06:23;;;;;;;6.07;1.60;;;26.40;99.90;;;;;;4996137;28;20465;-75
2022/09/01 09:08:53;;;;;;;6.00;1.47;;;26.40;99.90;;;;;;4996105;28;20476;-74
2022/09/01 09:11:44;;;;;;;3.23;1.47;;;26.50;99.90;;;;;;4995558;28;20509;-75
2022/09/01 09:15:01;;;;;;;2.53;1.20;;;26.80;99.90;;;;;;4995987;28;20415;-75
2022/09/01 09:17:36;;;;;;;2.40;1.63;;;26.30;99.90;;;;;;4938960;29;20515;-74
2022/09/01 09:20:03;;;;;;;2.30;1.50;;;26.20;99.90;;;;;;4954623;29;20833;-75
2022/09/01 09:22:30;;;;;;;1.40;1.20;;;26.60;99.90;;;;;;4980258;28;20910;-75
2022/09/01 09:25:09;;;;;;;1.93;1.60;;;27.60;99.90;;;;;;4995745;28;20586;-76
2022/09/01 09:27:41;;;;;;;2.77;2.10;;;27.20;99.90;;;;;;4995616;28;20414;-76
2022/09/01 09:30:19;;;;;;;5.70;1.47;;;27.70;99.90;;;;;;4995268;28;20417;-75
2022/09/01 09:33:03;;;;;;;2.03;1.40;;;28.40;99.70;;;;;;4995781;28;20411;-75
2022/09/01 09:35:30;;;;;;;2.10;1.60;;;29.20;95.30;;;;;;4995476;28;20836;-75
2022/09/01 09:38:27;;;;;;;5.70;1.47;;;29.30;93.40;;;;;;4995547;28;20418;-76
2022/09/01 09:41:05;;;;;;;3.10;1.10;;;28.60;93.10;;;;;;4995138;28;20439;-75
2022/09/01 09:43:45;;;;;;;1.63;1.17;;;28.40;91.90;;;;;;4994062;28;20430;-75
2022/09/01 09:46:22;;;;;;;4.37;1.33;;;28.60;92.20;;;;;;4995034;28;21020;-75
2022/09/01 09:49:05;;;;;;;3.20;1.20;;;28.50;90.60;;;;;;4995256;28;20421;-75
2022/09/01 09:51:32;;;;;;;6.70;1.47;;;28.50;91.50;;;;;;4993750;28;20434;-76
2022/09/01 09:54:21;;;;;;;2.33;1.30;;;28.60;88.40;;;;;;4995014;28;20502;-74
2022/09/01 09:56:48;;;;;;;1.90;1.47;;;29.20;86.20;;;;;;4995190;28;20411;-76
2022/09/01 09:59:29;;;;;;;4.60;1.70;;;29.60;86.30;;;;;;4995001;28;20415;-75
2022/09/01 10:01:58;;;;;;;2.50;1.23;;;30.30;80.90;;;;;;4994585;28;20525;-74
2022/09/01 10:04:36;;;;;;;3.03;1.10;;;30.60;80.20;;;;;;4994920;28;20498;-76
2022/09/01 10:07:35;;;;;;;1.60;1.27;;;30.60;77.20;;;;;;4993601;28;20457;-76
2022/09/01 10:10:05;;;;;;;3.50;1.43;;;30.90;71.80;;;;;;4994529;28;20481;-75
2022/09/01 10:12:32;;;;;;;2.37;1.57;;;30.60;68.90;;;;;;4993679;28;20461;-74
2022/09/01 10:15:06;;;;;;;2.50;1.20;;;30.60;65.20;;;;;;4994766;28;20426;-75
2022/09/01 10:17:42;;;;;;;2.60;1.10;;;30.20;64.50;;;;;;4994903;28;20414;-75
2022/09/01 10:20:20;;;;;;;1.57;1.30;;;30.80;64.30;;;;;;4994303;28;20461;-75
2022/09/01 10:22:46;;;;;;;2.97;1.30;;;29.90;66.00;;;;;;4993327;28;20423;-75
2022/09/01 10:25:31;;;;;;;2.93;1.23;;;30.30;65.80;;;;;;4994733;28;20466;-76
2022/09/01 10:28:23;;;;;;;1.80;1.33;;;30.10;65.30;;;;;;4993345;28;20419;-76
2022/09/01 10:30:52;;;;;;;1.40;1.30;;;29.70;66.70;;;;;;4994011;28;20802;-74
2022/09/01 10:33:19;;;;;;;4.80;1.67;;;29.80;66.70;;;;;;4993165;28;20422;-75
2022/09/01 10:35:49;;;;;;;2.70;1.27;;;30.00;66.90;;;;;;4993112;28;20429;-76
2022/09/01 10:38:23;;;;;;;4.27;1.63;;;30.20;64.90;;;;;;4994333;28;20410;-74
2022/09/01 10:41:06;;;;;;;3.13;1.20;;;30.30;61.80;;;;;;4993912;28;20842;-74
2022/09/01 10:43:44;;;;;;;2.10;1.13;;;30.50;63.50;;;;;;4994398;28;20446;-75
2022/09/01 10:46:19;;;;;;;4.00;1.40;;;30.30;61.80;;;;;;4994104;28;20474;-75
2022/09/01 10:48:46;;;;;;;1.43;1.10;;;29.30;65.10;;;;;;4994126;28;20407;-74
2022/09/01 10:51:12;;;;;;;2.00;1.00;;;29.20;67.00;;;;;;4993788;28;20442;-74
2022/09/01 10:53:41;;;;;;;1.77;1.40;;;29.50;65.90;;;;;;4994134;28;20425;-74
2022/09/01 10:56:21;;;;;;;1.43;1.30;;;29.50;66.00;;;;;;4993100;28;20275;-74
2022/09/01 10:59:05;;;;;;;1.30;1.20;;;30.20;64.60;;;;;;4993716;28;20422;-76
2022/09/01 11:01:40;;;;;;;2.40;1.30;;;28.90;66.40;;;;;;4993736;28;20430;-75
2022/09/01 11:04:18;;;;;;;1.67;1.23;;;28.80;68.40;;;;;;4994258;28;20460;-76
2022/09/01 11:07:00;;;;;;;2.97;1.63;;;29.20;68.70;;;;;;4993860;28;20544;-75
2022/09/01 11:09:41;;;;;;;3.20;1.60;;;29.40;67.20;;;;;;4994019;28;20481;-75
2022/09/01 11:12:40;;;;;;;1.20;0.93;;;30.10;65.80;;;;;;4993983;28;20418;-74
2022/09/01 11:15:15;;;;;;;1.97;1.60;;;30.40;64.20;;;;;;4994003;28;20441;-76
2022/09/01 11:17:50;;;;;;;2.37;1.40;;;30.90;63.80;;;;;;4993847;28;20525;-75
2022/09/01 11:20:34;;;;;;;1.60;1.27;;;31.30;60.10;;;;;;4993532;28;20406;-76
2022/09/01 11:23:10;;;;;;;2.50;1.17;;;31.00;60.00;;;;;;4993810;28;20793;-76
2022/09/01 11:25:42;;;;;;;1.53;1.43;;;31.20;59.50;;;;;;4993725;28;20993;-75
2022/09/01 11:28:14;;;;;;;1.63;1.17;;;30.80;59.50;;;;;;4997076;28;20423;-76
2022/09/01 11:30:51;;;;;;;4.77;1.47;;;29.90;59.80;;;;;;4995944;28;20439;-75
2022/09/01 11:33:35;;;;;;;1.10;0.90;;;30.00;60.10;;;;;;4997767;28;20941;-75
2022/09/01 11:36:30;;;;;;;1.40;1.20;;;29.70;63.10;;;;;;4997835;28;20512;-74
2022/09/01 11:39:16;;;;;;;8.07;1.90;;;29.60;63.20;;;;;;4993118;28;20434;-75
2022/09/01 11:41:50;;;;;;;2.10;1.13;;;29.40;62.10;;;;;;4997414;28;20909;-75
2022/09/01 11:44:39;;;;;;;1.83;1.43;;;29.30;63.50;;;;;;4997774;28;20426;-75
2022/09/01 11:47:10;;;;;;;1.67;1.43;;;29.30;63.40;;;;;;4997788;28;20414;-75
2022/09/01 11:49:44;;;;;;;2.50;1.70;;;29.10;62.60;;;;;;4996714;28;20842;-75
2022/09/01 11:52:15;;;;;;;1.70;1.43;;;28.50;65.50;;;;;;4997817;28;20418;-74
2022/09/01 11:54:45;;;;;;;1.40;1.30;;;28.40;66.20;;;;;;4997441;28;20468;-75
2022/09/01 11:57:24;;;;;;;2.43;1.40;;;28.50;66.30;;;;;;4997235;28;20419;-74
2022/09/01 11:59:50;;;;;;;2.80;1.50;;;28.30;66.00;;;;;;4997347;28;20809;-76
2022/09/01 12:02:34;;;;;;;1.93;1.60;;;28.30;65.60;;;;;;4997813;28;20500;-76
2022/09/01 12:05:02;;;;;;;2.60;1.13;;;28.50;67.60;;;;;;4998122;28;20824;-75
2022/09/01 12:07:45;;;;;;;8.00;1.87;;;28.60;67.80;;;;;;4997549;28;20449;-76
2022/09/01 12:10:37;;;;;;;2.37;1.30;;;28.70;67.50;;;;;;4997732;28;20477;-75
2022/09/01 12:13:16;;;;;;;1.50;1.27;;;29.00;66.80;;;;;;4997616;28;20407;-75
2022/09/01 12:15:42;;;;;;;2.00;1.90;;;29.00;64.90;;;;;;4997993;28;20772;-75
2022/09/01 12:18:17;;;;;;;1.77;1.43;;;28.60;65.50;;;;;;4997921;28;20417;-76
2022/09/01 12:20:45;;;;;;;1.67;1.50;;;28.50;66.80;;;;;;4997518;28;20529;-76
2022/09/01 12:23:27;;;;;;;2.60;1.77;;;28.20;66.20;;;;;;4995690;28;20426;-76
2022/09/01 12:26:28;;;;;;;3.63;1.23;;;28.20;68.60;;;;;;4997665;28;20458;-74
2022/09/01 12:28:55;;;;;;;2.10;1.90;;;28.90;69.70;;;;;;4986069;28;20437;-76
2022/09/01 12:31:23;;;;;;;2.10;1.90;;;29.80;66.40;;;;;;4996206;28;20453;-75
2022/09/01 12:33:49;;;;;;;1.73;1.63;;;30.70;65.10;;;;;;4996687;28;20418;-74
2022/09/01 12:36:33;;;;;;;2.00;1.70;;;31.30;62.50;;;;;;4996819;28;20419;-75
2022/09/01 12:39:18;;;;;;;1.53;1.30;;;31.90;60.40;;;;;;4996458;28;20411;-76
2022/09/01 12:42:00;;;;;;;2.33;1.40;;;32.30;58.70;;;;;;4996153;28;20441;-75
2022/09/01 12:44:42;;;;;;;4.07;1.80;;;32.50;57.90;;;;;;4996571;28;20407;-74
2022/09/01 12:47:12;;;;;;;1.90;1.80;;;32.50;56.10;;;;;;4996432;28;20410;-75
2022/09/01 12:49:41;;;;;;;1.77;1.40;;;32.40;58.00;;;;;;4996365;28;20438;-75
2022/09/01 12:52:24;;;;;;;4.87;1.70;;;32.70;57.10;;;;;;4996232;28;20431;-74
2022/09/01 12:54:53;;;;;;;1.70;1.60;;;32.90;56.40;;;;;;4995146;28;20433;-76
2022/09/01 12:57:26;;;;;;;1.93;1.83;;;33.00;53.60;;;;;;4996190;28;20411;-75
2022/09/01 13:00:10;;;;;;;2.50;1.70;;;32.80;54.90;;;;;;4995672;28;20442;-74
2022/09/01 13:02:45;;;;;;;3.37;2.00;;;32.70;55.80;;;;;;4996300;28;20489;-75
2022/09/01 13:05:27;;;;;;;2.80;1.70;;;32.30;56.90;;;;;;4996076;28;20457;-75
2022/09/01 13:07:59;;;;;;;2.60;1.63;;;32.30;55.40;;;;;;4996027;28;20434;-75
2022/09/01 13:10:29;;;;;;;3.43;1.83;;;31.90;56.60;;;;;;4995592;28;20426;-75
2022/09/01 13:12:56;;;;;;;2.50;1.93;;;31.40;57.60;;;;;;4996468;28;20410;-76
2022/09/01 13:15:24;;;;;;;2.83;1.90;;;31.20;57.60;;;;;;4995025;28;20415;-76
2022/09/01 13:17:50;;;;;;;2.50;1.97;;;30.90;58.30;;;;;;4995923;28;20937;-76